CST,Max TemperatureF,Mean TemperatureF,Min TemperatureF,Max Dew PointF,MeanDew PointF,Min DewpointF,Max Humidity, Mean Humidity, Min Humidity, Max Sea Level PressureIn, Mean Sea Level PressureIn, Min Sea Level PressureIn, Max VisibilityMiles, Mean VisibilityMiles, Min VisibilityMiles, Max Wind SpeedMPH, Mean Wind SpeedMPH, Max Gust SpeedMPH,PrecipitationIn, CloudCover, Events, WindDirDegrees
2014-1-1,55,38,21,33,24,19,93,65,33,30.17,30.06,29.90,10,8,2,17,10,25,0.00,4,Snow,228
2014-1-2,25,18,10,19,11,6,93,80,58,30.52,30.33,30.14,10,8,2,17,11,25,0.00,4,Snow,331
2014-1-3,42,27,12,18,14,6,81,59,38,30.50,30.26,30.01,10,10,10,21,9,25,0.00,0,,147
2014-1-4,43,38,34,38,32,18,100,79,50,29.98,29.87,29.82,10,8,3,26,14,33,0.00,6,Rain,134
2014-1-5,37,22,6,36,14,-5,100,85,60,30.53,30.02,29.79,10,3,0,20,12,32,0.15,7,Fog-Rain-Snow,343
2014-1-6,9,2,-5,-5,-10,-21,72,57,42,30.69,30.61,30.56,10,10,10,20,10,23,0.00,0,,273
2014-1-7,36,20,3,20,10,-4,76,59,44,30.53,30.37,30.27,10,10,10,18,10,26,0.00,0,,185
2014-1-8,35,32,28,32,27,15,96,82,54,30.32,30.26,30.23,10,6,1,15,8,,0.09,7,Rain-Snow,126
2014-1-9,37,34,30,36,32,30,100,93,87,30.28,30.20,30.03,10,8,3,10,7,,0.00,8,Rain-Snow,127
2014-1-10,53,45,37,50,45,33,100,92,71,30.03,29.78,29.60,10,7,2,21,10,33,1.26,7,Rain-Thunderstorm,174
2014-1-11,50,41,32,36,31,27,93,76,50,30.04,29.89,29.71,10,10,7,17,9,23,0.00,2,,251
2014-1-12,66,50,33,37,28,25,82,45,21,30.00,29.81,29.65,10,10,10,36,15,44,0.00,0,,175
2014-1-13,55,46,37,46,32,24,76,57,32,29.96,29.85,29.67,10,10,10,20,13,26,0.00,1,,266
2014-1-14,46,39,30,32,21,12,67,48,32,30.24,30.06,29.88,10,10,10,17,11,26,0.00,1,Rain,278
2014-1-15,39,30,23,20,15,12,63,51,39,30.30,30.19,29.98,10,10,10,17,9,23,0.00,3,,273
2014-1-16,50,42,35,26,21,14,64,44,27,30.05,29.95,29.90,10,10,10,28,15,39,0.00,2,,268
2014-1-17,35,29,23,17,7,-1,65,42,23,30.23,30.17,30.07,10,10,10,26,15,32,0.00,0,,274
2014-1-18,55,40,26,23,19,14,63,43,29,30.12,29.99,29.86,10,10,10,30,15,39,0.00,1,,258
2014-1-19,54,38,23,25,21,17,81,52,28,30.20,30.09,29.96,10,10,10,17,9,23,0.00,0,,225
2014-1-20,60,47,34,29,24,18,67,42,27,30.16,29.98,29.88,10,10,8,17,8,34,0.00,0,,304
2014-1-21,35,24,14,19,7,0,77,58,32,30.44,30.31,30.17,10,10,9,22,14,32,0.00,2,Snow,331
2014-1-22,41,30,18,18,12,7,68,51,38,30.31,30.20,30.14,10,10,10,12,5,21,0.00,1,,302
2014-1-23,27,17,6,15,-1,-6,69,53,36,30.81,30.65,30.34,10,10,10,17,11,25,0.00,2,,4
2014-1-24,34,18,3,7,0,-9,76,46,17,30.77,30.43,30.04,10,10,10,22,9,29,0.00,0,,214
2014-1-25,55,44,32,32,22,7,82,48,32,30.04,30.00,29.94,10,10,9,22,12,28,0.00,3,,279
2014-1-26,64,48,33,32,29,15,85,50,25,30.03,29.81,29.68,10,10,10,30,11,51,0.00,0,,253
2014-1-27,32,24,14,9,-3,-11,50,40,31,30.47,30.35,30.06,10,10,10,20,13,30,0.00,6,,8
2014-1-28,26,18,10,4,-2,-5,61,44,31,30.54,30.46,30.39,10,10,10,14,8,,0.00,3,,347
2014-1-29,39,26,12,12,7,4,74,47,26,30.39,30.29,30.10,10,10,10,17,8,21,0.00,0,,196
2014-1-30,46,37,28,27,17,8,75,46,30,30.09,29.93,29.84,10,10,10,29,16,36,0.00,0,,176
2014-1-31,46,40,33,43,37,27,93,82,70,29.93,29.88,29.79,10,9,6,13,8,,0.00,8,,102